Terminal Aerodrome Forecast
Issued by NWS

Home | Current Version | Previous Version | Text Only | Print | Product List | Glossary Off
Versions: 1 2 3 4 5 6 7 8 9 10 11 12 13 14 15 16 17 18 19 20 21 22 23 24 25 26 27 28 29 30 31

000
FTUS45 KGGW 250500
TAFOLF
TAF
KOLF 250520Z 2506/2606 VRB05KT P6SM OVC090
     FM250800 33012KT P6SM BKN080
     FM251200 32014KT P6SM OVC025
     FM251900 33010KT P6SM FEW200=

USA.gov is the U.S. government's official web portal to all federal, state and local government web resources and services.